createdAt,value
2023-04-09T00:04:01.838Z,101210.91
2023-04-09T00:09:03.082Z,101215.75
2023-04-09T00:14:04.291Z,101214.97
2023-04-09T00:19:05.849Z,101207.13
2023-04-09T00:24:07.022Z,101214.97
2023-04-09T00:29:08.207Z,101209.75
2023-04-09T00:34:09.387Z,101211.00
2023-04-09T00:39:10.869Z,101205.06
2023-04-09T00:44:12.076Z,101200.78
2023-04-09T00:49:13.248Z,101203.31
2023-04-09T00:54:14.440Z,101198.81
2023-04-09T00:59:15.967Z,101201.44
2023-04-09T01:04:17.196Z,101199.63
2023-04-09T01:09:18.350Z,101202.09
2023-04-09T01:14:19.491Z,101202.00
2023-04-09T01:19:20.884Z,101198.38
2023-04-09T01:24:22.557Z,101198.47
2023-04-09T01:29:23.972Z,101193.38
2023-04-09T01:34:25.241Z,101199.88
2023-04-09T01:39:27.033Z,101194.66
2023-04-09T01:44:28.268Z,101192.44
2023-04-09T01:49:29.403Z,101187.03
2023-04-09T01:54:31.610Z,101194.78
2023-04-09T01:59:32.829Z,101199.00
2023-04-09T02:04:34.209Z,101198.38
2023-04-09T02:09:35.414Z,101194.69
2023-04-09T02:14:37.068Z,101190.56
2023-04-09T02:19:38.989Z,101189.78
2023-04-09T02:24:43.287Z,101195.22
2023-04-09T02:29:44.441Z,101193.06
2023-04-09T02:34:45.969Z,101183.97
2023-04-09T02:39:47.119Z,101184.44
2023-04-09T02:44:48.400Z,101178.78
2023-04-09T02:49:49.605Z,101178.19
2023-04-09T02:54:50.862Z,101170.03
2023-04-09T02:59:52.046Z,101172.88
2023-04-09T03:04:53.617Z,101168.59
2023-04-09T03:09:54.768Z,101168.28
2023-04-09T03:14:55.989Z,101161.38
2023-04-09T03:19:57.188Z,101160.50
2023-04-09T03:24:58.354Z,101158.78
2023-04-09T03:29:59.481Z,101149.78
2023-04-09T03:35:00.644Z,101145.69
2023-04-09T03:40:01.865Z,101151.34
2023-04-09T03:45:03.112Z,101148.31
2023-04-09T03:50:04.297Z,101144.38
2023-04-09T03:55:05.564Z,101144.22
2023-04-09T04:00:06.861Z,101143.88
2023-04-09T04:05:08.103Z,101136.53
2023-04-09T04:10:09.282Z,101148.94
2023-04-09T04:15:10.642Z,101139.34
2023-04-09T04:20:12.015Z,101143.81
2023-04-09T04:25:13.205Z,101135.81
2023-04-09T04:30:14.405Z,101138.66
2023-04-09T04:35:15.658Z,101143.22
2023-04-09T04:40:16.877Z,101133.03
2023-04-09T04:45:18.068Z,101139.84
2023-04-09T04:50:19.241Z,101142.91
2023-04-09T04:55:20.621Z,101136.31
2023-04-09T05:00:21.769Z,101145.72
2023-04-09T05:05:22.992Z,101141.50
2023-04-09T05:10:24.124Z,101145.38
2023-04-09T05:15:25.365Z,101145.50
2023-04-09T05:20:26.531Z,101146.28
2023-04-09T05:25:27.704Z,101147.53
2023-04-09T05:30:28.942Z,101165.50
2023-04-09T05:35:30.355Z,101160.75
2023-04-09T05:40:31.517Z,101161.84
2023-04-09T05:45:32.744Z,101169.31
2023-04-09T05:50:40.867Z,101162.63
2023-04-09T05:55:45.440Z,101168.28
2023-04-09T06:00:46.656Z,101167.47
2023-04-09T06:05:48.377Z,101165.06
2023-04-09T06:10:49.598Z,101160.41
2023-04-09T06:15:51.123Z,101166.44
2023-04-09T06:20:52.323Z,101165.94
2023-04-09T06:25:53.533Z,101165.38
2023-04-09T06:30:55.315Z,101169.88
2023-04-09T06:35:56.600Z,101171.06
2023-04-09T06:40:57.858Z,101171.09
2023-04-09T06:45:59.098Z,101172.56
2023-04-09T06:51:00.828Z,101174.31
2023-04-09T06:56:01.974Z,101184.25
2023-04-09T07:01:03.234Z,101181.94
2023-04-09T07:06:04.376Z,101186.88
2023-04-09T07:11:05.552Z,101189.50
2023-04-09T07:16:06.784Z,101198.31
2023-04-09T07:21:07.999Z,101199.63
2023-04-09T07:26:09.247Z,101197.72
2023-04-09T07:31:11.432Z,101204.13
2023-04-09T07:36:12.845Z,101207.91
2023-04-09T07:41:14.146Z,101202.56
2023-04-09T07:46:15.334Z,101200.44
2023-04-09T07:51:16.513Z,101196.84
2023-04-09T07:56:17.734Z,101200.16
2023-04-09T08:01:21.532Z,101203.38
2023-04-09T08:06:22.697Z,101196.94
2023-04-09T08:11:25.911Z,101198.81
2023-04-09T08:16:27.119Z,101197.34
2023-04-09T08:21:29.141Z,101187.16
2023-04-09T08:26:30.350Z,101193.25
2023-04-09T08:31:31.843Z,101202.75
2023-04-09T08:36:34.502Z,101190.66
2023-04-09T08:41:36.054Z,101197.75
2023-04-09T08:46:37.231Z,101194.22
2023-04-09T08:51:39.244Z,101207.97
2023-04-09T08:56:40.538Z,101205.13
2023-04-09T09:01:41.879Z,101204.28
2023-04-09T09:06:43.528Z,101193.72
2023-04-09T09:11:44.835Z,101196.66
2023-04-09T09:16:46.658Z,101191.06
2023-04-09T09:21:48.132Z,101196.78
2023-04-09T09:26:49.299Z,101193.94
2023-04-09T09:31:50.524Z,101187.78
2023-04-09T09:36:51.801Z,101179.69
2023-04-09T09:41:53.046Z,101167.16
2023-04-09T09:46:54.298Z,101182.84
2023-04-09T09:51:55.536Z,101174.00
2023-04-09T09:56:57.218Z,101172.03
2023-04-09T10:01:58.495Z,101160.88
2023-04-09T10:07:00.371Z,101140.63
2023-04-09T10:12:02.375Z,101155.00
2023-04-09T10:17:04.176Z,101142.75
2023-04-09T10:22:05.682Z,101132.28
2023-04-09T10:27:07.202Z,101141.19
2023-04-09T10:32:08.447Z,101136.00
2023-04-09T10:37:09.846Z,101144.56
2023-04-09T10:42:10.995Z,101132.50
2023-04-09T10:47:13.008Z,101131.97
2023-04-09T10:52:16.134Z,101133.06
2023-04-09T10:57:17.942Z,101127.75
2023-04-09T11:02:19.251Z,101142.84
2023-04-09T11:07:20.464Z,101135.22
2023-04-09T11:12:21.898Z,101112.50
2023-04-09T11:17:23.134Z,101108.50
2023-04-09T11:22:24.332Z,101100.53
2023-04-09T11:27:25.464Z,101105.56
2023-04-09T11:32:26.982Z,101095.06
2023-04-09T11:37:28.239Z,101086.81
2023-04-09T11:42:29.417Z,101098.06
2023-04-09T11:47:30.977Z,101091.94
2023-04-09T11:52:35.582Z,101084.00
2023-04-09T11:57:36.947Z,101086.66
2023-04-09T12:02:38.218Z,101082.25
2023-04-09T12:07:40.836Z,101087.56
2023-04-09T12:12:45.574Z,101070.25
2023-04-09T12:17:46.800Z,101082.44
2023-04-09T12:22:47.970Z,101078.66
2023-04-09T12:27:52.076Z,101080.16
2023-04-09T12:32:53.277Z,101070.50
2023-04-09T12:37:54.629Z,101066.03
2023-04-09T12:42:55.947Z,101072.91
2023-04-09T12:47:57.158Z,101064.75
2023-04-09T12:52:58.402Z,101065.28
2023-04-09T12:57:59.889Z,101060.19
2023-04-09T13:03:01.544Z,101070.72
2023-04-09T13:08:03.522Z,101053.84
2023-04-09T13:13:05.267Z,101056.97
2023-04-09T13:18:06.582Z,101051.84
2023-04-09T13:23:07.859Z,101040.72
2023-04-09T13:28:09.141Z,101044.44
2023-04-09T13:33:10.400Z,101040.56
2023-04-09T13:38:11.682Z,101045.56
2023-04-09T13:43:12.873Z,101050.84
2023-04-09T13:48:15.424Z,101050.34
2023-04-09T13:53:17.047Z,101032.34
2023-04-09T13:58:18.304Z,101011.38
2023-04-09T14:03:19.568Z,101026.84
2023-04-09T14:08:21.378Z,101029.94
2023-04-09T14:13:22.586Z,101021.31
2023-04-09T14:18:23.768Z,101022.91
2023-04-09T14:23:25.284Z,101015.56
2023-04-09T14:28:26.513Z,101012.31
2023-04-09T14:33:27.752Z,100998.56
2023-04-09T14:38:29.105Z,100990.47
2023-04-09T14:43:30.285Z,100988.28
2023-04-09T14:48:31.523Z,100985.94
2023-04-09T14:53:32.900Z,100983.91
2023-04-09T14:58:34.136Z,100988.59
2023-04-09T15:03:35.714Z,100998.44
2023-04-09T15:08:37.029Z,100988.25
2023-04-09T15:13:38.188Z,100992.16
2023-04-09T15:18:39.352Z,100992.69
2023-04-09T15:23:40.545Z,100976.00
2023-04-09T15:28:41.732Z,100984.63
2023-04-09T15:33:43.774Z,100984.13
2023-04-09T15:38:44.971Z,100986.34
2023-04-09T15:43:46.198Z,100986.03
2023-04-09T15:48:47.352Z,100981.25
2023-04-09T15:53:48.716Z,100984.84
2023-04-09T15:58:49.900Z,100981.00
2023-04-09T16:03:52.408Z,100971.22
2023-04-09T16:08:53.936Z,100980.88
2023-04-09T16:13:56.151Z,100974.19
2023-04-09T16:18:57.425Z,100980.94
2023-04-09T16:23:58.668Z,100990.22
2023-04-09T16:29:03.961Z,100981.00
2023-04-09T16:34:05.567Z,100973.59
2023-04-09T16:39:06.824Z,100972.47
2023-04-09T16:44:08.029Z,100975.84
2023-04-09T16:49:09.202Z,100973.78
2023-04-09T16:54:10.775Z,100969.78
2023-04-09T16:59:12.160Z,100950.50
2023-04-09T17:04:13.352Z,100937.88
2023-04-09T17:09:14.634Z,100930.06
2023-04-09T17:14:16.051Z,100921.63
2023-04-09T17:19:17.238Z,100910.28
2023-04-09T17:24:18.562Z,100922.56
2023-04-09T17:29:19.734Z,100934.69
2023-04-09T17:34:20.952Z,100949.25
2023-04-09T17:39:24.038Z,100957.94
2023-04-09T17:44:25.687Z,100948.03
2023-04-09T17:49:27.017Z,100949.34
2023-04-09T17:54:28.171Z,100961.25
2023-04-09T17:59:29.414Z,100963.25
2023-04-09T18:04:31.532Z,100955.31
2023-04-09T18:09:32.931Z,100953.41
2023-04-09T18:14:34.068Z,100944.63
2023-04-09T18:19:35.268Z,100951.59
2023-04-09T18:24:36.549Z,100957.53
2023-04-09T18:29:37.745Z,100963.97
2023-04-09T18:34:38.946Z,100964.31
2023-04-09T18:39:40.137Z,100969.38
2023-04-09T18:44:41.383Z,100961.06
2023-04-09T18:49:42.536Z,100960.34
2023-04-09T18:54:43.723Z,100970.09
2023-04-09T18:59:45.604Z,100964.63
2023-04-09T19:04:47.566Z,100971.75
2023-04-09T19:09:48.817Z,100971.50
2023-04-09T19:14:50.008Z,100975.97
2023-04-09T19:19:51.221Z,100982.56
2023-04-09T19:24:52.387Z,100982.59
2023-04-09T19:29:53.593Z,100973.16
2023-04-09T19:34:54.796Z,100975.56
2023-04-09T19:39:56.289Z,100973.19
2023-04-09T19:44:57.442Z,100975.03
2023-04-09T19:49:58.705Z,100972.41
2023-04-09T19:55:01.023Z,100975.88
2023-04-09T20:00:02.331Z,100987.13
2023-04-09T20:05:03.511Z,100982.41
2023-04-09T20:10:05.003Z,100972.97
2023-04-09T20:15:09.202Z,100977.69
2023-04-09T20:20:11.654Z,100982.13
2023-04-09T20:25:12.881Z,100986.56
2023-04-09T20:30:14.126Z,100975.81
2023-04-09T20:35:15.350Z,100971.91
2023-04-09T20:40:16.880Z,100965.88
2023-04-09T20:45:18.076Z,100968.75
2023-04-09T20:50:19.765Z,100965.06
2023-04-09T20:55:21.111Z,100962.97
2023-04-09T21:00:22.241Z,100959.31
2023-04-09T21:05:24.356Z,100954.59
2023-04-09T21:10:25.735Z,100951.97
2023-04-09T21:15:26.858Z,100952.47
2023-04-09T21:20:28.560Z,100943.59
2023-04-09T21:25:29.796Z,100943.59
2023-04-09T21:30:32.225Z,100938.59
2023-04-09T21:35:33.461Z,100935.72
2023-04-09T21:40:34.644Z,100944.81
2023-04-09T21:45:36.642Z,100942.69
2023-04-09T21:50:37.895Z,100946.59
2023-04-09T21:55:39.065Z,100946.84
2023-04-09T22:00:40.531Z,100937.63
2023-04-09T22:05:41.705Z,100932.13
2023-04-09T22:10:42.941Z,100934.25
2023-04-09T22:15:44.126Z,100929.25
2023-04-09T22:20:45.473Z,100928.44
2023-04-09T22:25:46.907Z,100925.03
2023-04-09T22:30:48.090Z,100936.50
2023-04-09T22:35:49.416Z,100941.19
2023-04-09T22:40:50.947Z,100953.19
2023-04-09T22:45:52.239Z,100959.41
2023-04-09T22:50:53.545Z,100966.13
2023-04-09T22:55:54.778Z,100963.44
2023-04-09T23:00:56.353Z,100967.59
2023-04-09T23:05:57.652Z,100970.63
2023-04-09T23:10:59.012Z,100987.56
2023-04-09T23:16:00.305Z,100978.88
2023-04-09T23:21:01.550Z,100968.13
2023-04-09T23:26:03.255Z,100962.91
2023-04-09T23:31:04.484Z,100961.66
2023-04-09T23:36:05.838Z,100950.69
2023-04-09T23:41:07.092Z,100952.25
2023-04-09T23:46:08.272Z,100949.13
2023-04-09T23:51:09.556Z,100953.25
2023-04-09T23:56:10.738Z,100950.53
